Meadowbrook, West Virginia
Current Conditions -  °F | °C
As of 8:53 PM on Wednesday 17 Dec 2014 (Local Time) from KCKB Reporting Station
Overcast Overcast  
Wind Chill: 25°   Ceiling: 2500
Heat Index: 32°   Visibility: 10mi
Dew Point: 24°   Wind: 8mph
Humidity: 73%   Direction: 250°WSW
Pressure: 30.14"   Gusts: NA
Location:  39.35°N, 80.31°W
Report Text: KCKB 180153Z 25007KT 10SM BKN025 OVC032 00/M04 A3014 RMK AO2 SLP210 T00001044
Loading
Personal Weather Stations






























Interactive Weather Map New forecast layout! Learn more

10-Day Weather Forecast

Advertisements
Track Severe Weather on mobile